sensor_id;sensor_type;location;lat;lon;timestamp;pressure;altitude;pressure_sealevel;temperature;humidity
6387;BME280;3226;42.162;24.756;2023-02-03T00:01:13;99901.03;;;3.59;69.86
6387;BME280;3226;42.162;24.756;2023-02-03T00:03:41;99907.25;;;3.73;69.42
6387;BME280;3226;42.162;24.756;2023-02-03T00:06:09;99895.22;;;3.72;68.93
6387;BME280;3226;42.162;24.756;2023-02-03T00:08:37;99892.41;;;3.76;69.02
6387;BME280;3226;42.162;24.756;2023-02-03T00:11:05;99880.44;;;3.74;69.11
6387;BME280;3226;42.162;24.756;2023-02-03T00:13:35;99881.66;;;3.67;70.19
6387;BME280;3226;42.162;24.756;2023-02-03T00:16:03;99890.75;;;3.75;70.00
6387;BME280;3226;42.162;24.756;2023-02-03T00:18:33;99885.50;;;3.59;70.63
6387;BME280;3226;42.162;24.756;2023-02-03T00:21:01;99885.91;;;3.50;69.93
6387;BME280;3226;42.162;24.756;2023-02-03T00:23:29;99903.22;;;3.67;69.36
6387;BME280;3226;42.162;24.756;2023-02-03T00:26:05;99899.13;;;3.81;68.15
6387;BME280;3226;42.162;24.756;2023-02-03T00:28:35;99879.75;;;3.53;68.91
6387;BME280;3226;42.162;24.756;2023-02-03T00:31:03;99887.22;;;3.59;68.54
6387;BME280;3226;42.162;24.756;2023-02-03T00:33:32;99900.41;;;3.72;68.33
6387;BME280;3226;42.162;24.756;2023-02-03T00:36:04;99899.03;;;3.82;67.70
6387;BME280;3226;42.162;24.756;2023-02-03T00:38:32;99902.75;;;3.94;66.55
6387;BME280;3226;42.162;24.756;2023-02-03T00:41:00;99904.41;;;3.95;66.31
6387;BME280;3226;42.162;24.756;2023-02-03T00:43:28;99908.09;;;3.91;66.86
6387;BME280;3226;42.162;24.756;2023-02-03T00:45:58;99908.84;;;3.93;67.59
6387;BME280;3226;42.162;24.756;2023-02-03T00:48:26;99906.84;;;3.98;67.07
6387;BME280;3226;42.162;24.756;2023-02-03T00:50:54;99914.13;;;3.92;67.14
6387;BME280;3226;42.162;24.756;2023-02-03T00:53:22;99928.53;;;3.80;67.96
6387;BME280;3226;42.162;24.756;2023-02-03T00:55:50;99918.31;;;3.59;68.00
6387;BME280;3226;42.162;24.756;2023-02-03T00:58:18;99830.72;;;3.14;68.11
6387;BME280;3226;42.162;24.756;2023-02-03T01:00:46;99920.75;;;3.80;67.67
6387;BME280;3226;42.162;24.756;2023-02-03T01:03:16;99912.06;;;3.63;67.91
6387;BME280;3226;42.162;24.756;2023-02-03T01:05:44;99951.16;;;3.76;68.94
6387;BME280;3226;42.162;24.756;2023-02-03T01:08:12;99936.91;;;3.85;69.14
6387;BME280;3226;42.162;24.756;2023-02-03T01:10:40;99943.75;;;3.51;70.06
6387;BME280;3226;42.162;24.756;2023-02-03T01:13:08;99943.59;;;3.54;70.05
6387;BME280;3226;42.162;24.756;2023-02-03T01:15:36;99941.22;;;3.49;70.25
6387;BME280;3226;42.162;24.756;2023-02-03T01:18:04;99925.69;;;3.49;69.95
6387;BME280;3226;42.162;24.756;2023-02-03T01:20:34;99928.59;;;3.60;70.13
6387;BME280;3226;42.162;24.756;2023-02-03T01:23:02;99925.69;;;3.49;70.32
6387;BME280;3226;42.162;24.756;2023-02-03T01:25:30;99924.84;;;3.66;69.88
6387;BME280;3226;42.162;24.756;2023-02-03T01:27:58;99935.16;;;3.68;68.83
6387;BME280;3226;42.162;24.756;2023-02-03T01:30:26;99934.91;;;3.55;68.89
6387;BME280;3226;42.162;24.756;2023-02-03T01:32:54;99939.78;;;3.61;69.11
6387;BME280;3226;42.162;24.756;2023-02-03T01:35:23;99920.75;;;3.44;68.50
6387;BME280;3226;42.162;24.756;2023-02-03T01:37:52;99944.19;;;3.59;67.36
6387;BME280;3226;42.162;24.756;2023-02-03T01:40:20;99939.63;;;3.64;68.14
6387;BME280;3226;42.162;24.756;2023-02-03T01:42:48;99941.69;;;3.57;67.77
6387;BME280;3226;42.162;24.756;2023-02-03T01:45:18;99949.63;;;3.54;68.06
6387;BME280;3226;42.162;24.756;2023-02-03T01:47:48;99945.31;;;3.53;68.16
6387;BME280;3226;42.162;24.756;2023-02-03T01:50:19;99947.41;;;3.64;68.39
6387;BME280;3226;42.162;24.756;2023-02-03T01:52:52;99948.97;;;3.49;68.64
6387;BME280;3226;42.162;24.756;2023-02-03T01:55:25;99942.75;;;3.53;68.25
6387;BME280;3226;42.162;24.756;2023-02-03T01:57:57;99927.13;;;3.55;68.45
6387;BME280;3226;42.162;24.756;2023-02-03T02:00:26;99953.44;;;3.82;68.63
6387;BME280;3226;42.162;24.756;2023-02-03T02:02:58;99933.69;;;3.62;68.24
6387;BME280;3226;42.162;24.756;2023-02-03T02:05:30;99953.06;;;3.72;68.00
6387;BME280;3226;42.162;24.756;2023-02-03T02:08:01;99968.38;;;3.77;69.68
6387;BME280;3226;42.162;24.756;2023-02-03T02:10:31;99977.28;;;3.89;69.37
6387;BME280;3226;42.162;24.756;2023-02-03T02:13:01;99974.56;;;3.74;68.98
6387;BME280;3226;42.162;24.756;2023-02-03T02:15:36;99962.81;;;3.85;69.48
6387;BME280;3226;42.162;24.756;2023-02-03T02:18:22;99977.66;;;3.81;69.73
6387;BME280;3226;42.162;24.756;2023-02-03T02:24:47;99980.66;;;3.73;70.81
6387;BME280;3226;42.162;24.756;2023-02-03T02:27:42;99967.59;;;3.75;70.31
6387;BME280;3226;42.162;24.756;2023-02-03T02:33:25;99980.78;;;3.70;70.47
6387;BME280;3226;42.162;24.756;2023-02-03T02:36:07;99991.72;;;3.58;71.07
6387;BME280;3226;42.162;24.756;2023-02-03T02:38:47;99991.44;;;3.64;71.29
6387;BME280;3226;42.162;24.756;2023-02-03T02:41:20;99995.25;;;3.57;72.29
6387;BME280;3226;42.162;24.756;2023-02-03T02:43:56;100004.88;;;3.72;72.46
6387;BME280;3226;42.162;24.756;2023-02-03T02:46:31;100001.13;;;3.78;71.38
6387;BME280;3226;42.162;24.756;2023-02-03T02:49:05;100008.53;;;3.86;72.23
6387;BME280;3226;42.162;24.756;2023-02-03T02:51:37;100013.09;;;3.81;72.86
6387;BME280;3226;42.162;24.756;2023-02-03T02:54:10;100017.88;;;3.71;73.17
6387;BME280;3226;42.162;24.756;2023-02-03T02:56:42;100015.75;;;3.61;73.51
6387;BME280;3226;42.162;24.756;2023-02-03T02:59:13;100016.38;;;3.67;74.37
6387;BME280;3226;42.162;24.756;2023-02-03T03:01:42;100015.75;;;3.61;74.21
6387;BME280;3226;42.162;24.756;2023-02-03T03:04:14;100021.34;;;3.71;74.15
6387;BME280;3226;42.162;24.756;2023-02-03T03:06:47;100021.00;;;3.60;73.92
6387;BME280;3226;42.162;24.756;2023-02-03T03:09:20;99995.97;;;3.41;74.27
6387;BME280;3226;42.162;24.756;2023-02-03T03:11:52;100017.78;;;3.55;74.39
6387;BME280;3226;42.162;24.756;2023-02-03T03:14:24;100005.75;;;3.54;74.71
6387;BME280;3226;42.162;24.756;2023-02-03T03:16:58;100001.53;;;3.51;74.38
6387;BME280;3226;42.162;24.756;2023-02-03T03:19:31;99985.06;;;3.35;73.96
6387;BME280;3226;42.162;24.756;2023-02-03T03:22:03;100012.13;;;3.46;73.64
6387;BME280;3226;42.162;24.756;2023-02-03T03:24:34;100019.28;;;3.41;73.72
6387;BME280;3226;42.162;24.756;2023-02-03T03:27:07;100014.16;;;3.40;74.54
6387;BME280;3226;42.162;24.756;2023-02-03T03:29:39;100017.31;;;3.46;74.27
6387;BME280;3226;42.162;24.756;2023-02-03T03:32:09;100035.44;;;3.46;74.70
6387;BME280;3226;42.162;24.756;2023-02-03T03:34:39;100032.91;;;3.45;74.26
6387;BME280;3226;42.162;24.756;2023-02-03T03:37:11;100035.06;;;3.35;74.49
6387;BME280;3226;42.162;24.756;2023-02-03T03:39:45;100033.53;;;3.31;74.72
6387;BME280;3226;42.162;24.756;2023-02-03T03:42:20;100033.06;;;3.42;74.13
6387;BME280;3226;42.162;24.756;2023-02-03T03:44:55;100042.44;;;3.44;74.30
6387;BME280;3226;42.162;24.756;2023-02-03T03:47:29;100038.03;;;3.27;75.04
6387;BME280;3226;42.162;24.756;2023-02-03T03:50:00;100026.34;;;3.18;74.94
6387;BME280;3226;42.162;24.756;2023-02-03T03:52:32;99979.34;;;2.89;74.85
6387;BME280;3226;42.162;24.756;2023-02-03T03:55:02;99992.16;;;2.93;74.13
6387;BME280;3226;42.162;24.756;2023-02-03T03:57:35;100038.81;;;3.29;73.94
6387;BME280;3226;42.162;24.756;2023-02-03T04:00:08;100038.72;;;3.31;73.26
6387;BME280;3226;42.162;24.756;2023-02-03T04:02:39;100050.00;;;3.30;72.99
6387;BME280;3226;42.162;24.756;2023-02-03T04:05:09;100064.69;;;3.29;72.69
6387;BME280;3226;42.162;24.756;2023-02-03T04:07:40;100046.91;;;3.22;72.54
6387;BME280;3226;42.162;24.756;2023-02-03T04:10:17;100080.50;;;3.42;72.20
6387;BME280;3226;42.162;24.756;2023-02-03T04:12:47;100051.63;;;3.13;72.16
6387;BME280;3226;42.162;24.756;2023-02-03T04:15:15;100089.25;;;3.40;72.09
6387;BME280;3226;42.162;24.756;2023-02-03T04:17:44;100094.91;;;3.29;72.75
6387;BME280;3226;42.162;24.756;2023-02-03T04:20:14;100089.25;;;3.21;73.28
6387;BME280;3226;42.162;24.756;2023-02-03T04:22:42;100094.44;;;3.40;72.41
6387;BME280;3226;42.162;24.756;2023-02-03T04:25:10;100085.13;;;3.36;72.25
6387;BME280;3226;42.162;24.756;2023-02-03T04:27:38;100087.38;;;3.43;72.24
6387;BME280;3226;42.162;24.756;2023-02-03T04:30:07;100090.25;;;3.37;72.59
6387;BME280;3226;42.162;24.756;2023-02-03T04:32:35;100084.97;;;3.20;73.39
6387;BME280;3226;42.162;24.756;2023-02-03T04:35:04;100086.50;;;3.24;73.41
6387;BME280;3226;42.162;24.756;2023-02-03T04:37:34;100070.50;;;3.35;73.72
6387;BME280;3226;42.162;24.756;2023-02-03T04:40:03;100062.94;;;3.30;73.46
6387;BME280;3226;42.162;24.756;2023-02-03T04:42:31;100055.94;;;3.32;73.22
6387;BME280;3226;42.162;24.756;2023-02-03T04:44:59;100066.16;;;3.16;73.76
6387;BME280;3226;42.162;24.756;2023-02-03T04:47:27;100064.31;;;2.99;74.85
6387;BME280;3226;42.162;24.756;2023-02-03T04:49:55;100073.75;;;3.00;75.07
6387;BME280;3226;42.162;24.756;2023-02-03T04:52:24;100066.84;;;3.00;74.58
6387;BME280;3226;42.162;24.756;2023-02-03T04:54:53;100071.25;;;2.98;74.84
6387;BME280;3226;42.162;24.756;2023-02-03T04:57:21;100068.72;;;3.16;74.29
6387;BME280;3226;42.162;24.756;2023-02-03T04:59:49;100083.09;;;3.04;74.40
6387;BME280;3226;42.162;24.756;2023-02-03T05:02:17;100081.56;;;2.79;74.84
6387;BME280;3226;42.162;24.756;2023-02-03T05:04:45;100074.44;;;2.84;75.44
6387;BME280;3226;42.162;24.756;2023-02-03T05:07:13;100075.16;;;2.88;74.64
6387;BME280;3226;42.162;24.756;2023-02-03T05:09:41;100078.41;;;2.72;75.07
6387;BME280;3226;42.162;24.756;2023-02-03T05:12:10;100081.19;;;2.68;75.18
6387;BME280;3226;42.162;24.756;2023-02-03T05:14:38;100084.16;;;2.79;74.10
6387;BME280;3226;42.162;24.756;2023-02-03T05:17:06;100084.56;;;2.70;74.55
6387;BME280;3226;42.162;24.756;2023-02-03T05:19:34;100078.53;;;2.69;74.35
6387;BME280;3226;42.162;24.756;2023-02-03T05:22:02;100086.56;;;2.84;74.24
6387;BME280;3226;42.162;24.756;2023-02-03T05:24:30;100090.09;;;2.81;73.70
6387;BME280;3226;42.162;24.756;2023-02-03T05:26:58;100096.03;;;2.83;74.66
6387;BME280;3226;42.162;24.756;2023-02-03T05:29:27;100098.91;;;2.77;74.50
6387;BME280;3226;42.162;24.756;2023-02-03T05:31:55;100107.44;;;2.79;73.88
6387;BME280;3226;42.162;24.756;2023-02-03T05:34:24;100104.06;;;2.77;74.52
6387;BME280;3226;42.162;24.756;2023-02-03T05:36:52;100111.69;;;2.59;74.40
6387;BME280;3226;42.162;24.756;2023-02-03T05:39:20;100100.19;;;2.67;75.89
6387;BME280;3226;42.162;24.756;2023-02-03T05:41:48;100101.22;;;2.63;74.43
6387;BME280;3226;42.162;24.756;2023-02-03T05:44:18;100088.69;;;2.53;74.06
6387;BME280;3226;42.162;24.756;2023-02-03T05:46:49;100090.94;;;2.40;74.55
6387;BME280;3226;42.162;24.756;2023-02-03T05:49:17;100119.31;;;2.42;75.03
6387;BME280;3226;42.162;24.756;2023-02-03T05:51:45;100136.91;;;2.34;75.38
6387;BME280;3226;42.162;24.756;2023-02-03T05:54:14;100122.25;;;2.12;75.92
6387;BME280;3226;42.162;24.756;2023-02-03T05:56:42;100114.75;;;2.26;75.64
6387;BME280;3226;42.162;24.756;2023-02-03T05:59:10;100135.13;;;2.13;75.81
6387;BME280;3226;42.162;24.756;2023-02-03T06:01:38;100124.94;;;2.09;75.91
6387;BME280;3226;42.162;24.756;2023-02-03T06:04:07;100121.50;;;2.08;75.53
6387;BME280;3226;42.162;24.756;2023-02-03T06:06:36;100141.59;;;2.24;75.74
6387;BME280;3226;42.162;24.756;2023-02-03T06:09:05;100150.03;;;2.27;75.35
6387;BME280;3226;42.162;24.756;2023-02-03T06:11:33;100154.44;;;2.25;75.04
6387;BME280;3226;42.162;24.756;2023-02-03T06:14:02;100159.47;;;2.28;75.06
6387;BME280;3226;42.162;24.756;2023-02-03T06:16:30;100166.50;;;2.47;74.09
6387;BME280;3226;42.162;24.756;2023-02-03T06:18:59;100142.34;;;2.48;73.80
6387;BME280;3226;42.162;24.756;2023-02-03T06:21:29;100171.31;;;3.18;71.79
6387;BME280;3226;42.162;24.756;2023-02-03T06:23:56;100150.94;;;3.30;71.13
6387;BME280;3226;42.162;24.756;2023-02-03T06:26:25;100188.72;;;3.55;69.82
6387;BME280;3226;42.162;24.756;2023-02-03T06:28:53;100181.63;;;3.39;69.21
6387;BME280;3226;42.162;24.756;2023-02-03T06:31:21;100175.94;;;3.31;69.32
6387;BME280;3226;42.162;24.756;2023-02-03T06:33:49;100184.91;;;3.43;69.19
6387;BME280;3226;42.162;24.756;2023-02-03T06:36:17;100170.25;;;3.23;69.13
6387;BME280;3226;42.162;24.756;2023-02-03T06:38:46;100187.84;;;3.35;69.47
6387;BME280;3226;42.162;24.756;2023-02-03T06:41:14;100199.06;;;3.55;69.37
6387;BME280;3226;42.162;24.756;2023-02-03T06:43:42;100208.03;;;3.67;67.53
6387;BME280;3226;42.162;24.756;2023-02-03T06:46:10;100202.72;;;3.89;66.03
6387;BME280;3226;42.162;24.756;2023-02-03T06:48:38;100210.84;;;4.00;65.12
6387;BME280;3226;42.162;24.756;2023-02-03T06:51:06;100217.84;;;3.98;65.25
6387;BME280;3226;42.162;24.756;2023-02-03T06:53:34;100216.41;;;3.93;65.62
6387;BME280;3226;42.162;24.756;2023-02-03T06:56:04;100214.97;;;3.85;66.09
6387;BME280;3226;42.162;24.756;2023-02-03T06:58:32;100219.66;;;3.77;66.94
6387;BME280;3226;42.162;24.756;2023-02-03T07:01:00;100227.72;;;3.90;66.92
6387;BME280;3226;42.162;24.756;2023-02-03T07:03:28;100224.09;;;3.94;65.89
6387;BME280;3226;42.162;24.756;2023-02-03T07:05:56;100199.50;;;3.84;65.83
6387;BME280;3226;42.162;24.756;2023-02-03T07:08:24;100225.84;;;4.13;65.42
6387;BME280;3226;42.162;24.756;2023-02-03T07:10:52;100222.53;;;4.09;64.76
6387;BME280;3226;42.162;24.756;2023-02-03T07:13:22;100224.13;;;4.31;65.20
6387;BME280;3226;42.162;24.756;2023-02-03T07:15:50;100209.47;;;4.49;64.83
6387;BME280;3226;42.162;24.756;2023-02-03T07:18:18;100216.31;;;4.68;65.07
6387;BME280;3226;42.162;24.756;2023-02-03T07:21:10;100210.91;;;4.90;63.90
6387;BME280;3226;42.162;24.756;2023-02-03T07:23:38;100213.69;;;5.04;64.34
6387;BME280;3226;42.162;24.756;2023-02-03T07:26:07;100216.13;;;5.07;62.68
6387;BME280;3226;42.162;24.756;2023-02-03T07:28:36;100224.94;;;5.21;62.50
6387;BME280;3226;42.162;24.756;2023-02-03T07:31:04;100222.13;;;5.08;62.39
6387;BME280;3226;42.162;24.756;2023-02-03T07:33:33;100229.69;;;5.13;62.25
6387;BME280;3226;42.162;24.756;2023-02-03T07:36:02;100224.38;;;4.98;63.28
6387;BME280;3226;42.162;24.756;2023-02-03T07:38:30;100228.72;;;4.98;62.82
6387;BME280;3226;42.162;24.756;2023-02-03T07:40:58;100225.97;;;5.01;63.13
6387;BME280;3226;42.162;24.756;2023-02-03T07:43:26;100231.38;;;5.14;62.73
6387;BME280;3226;42.162;24.756;2023-02-03T07:45:55;100228.25;;;5.25;62.64
6387;BME280;3226;42.162;24.756;2023-02-03T07:48:23;100233.56;;;5.39;62.42
6387;BME280;3226;42.162;24.756;2023-02-03T07:50:52;100243.66;;;5.28;62.07
6387;BME280;3226;42.162;24.756;2023-02-03T07:53:20;100244.38;;;5.47;62.55
6387;BME280;3226;42.162;24.756;2023-02-03T07:55:48;100242.41;;;5.53;61.00
6387;BME280;3226;42.162;24.756;2023-02-03T07:58:16;100252.88;;;5.85;60.06
6387;BME280;3226;42.162;24.756;2023-02-03T08:00:44;100255.34;;;6.04;58.65
6387;BME280;3226;42.162;24.756;2023-02-03T08:03:13;100253.06;;;6.14;57.89
6387;BME280;3226;42.162;24.756;2023-02-03T08:05:41;100248.97;;;6.26;57.43
6387;BME280;3226;42.162;24.756;2023-02-03T08:08:09;100259.19;;;6.29;56.59
6387;BME280;3226;42.162;24.756;2023-02-03T08:10:37;100261.47;;;6.03;57.40
6387;BME280;3226;42.162;24.756;2023-02-03T08:13:05;100262.94;;;5.91;58.92
6387;BME280;3226;42.162;24.756;2023-02-03T08:15:33;100265.09;;;6.32;58.52
6387;BME280;3226;42.162;24.756;2023-02-03T08:18:01;100262.31;;;6.35;58.26
6387;BME280;3226;42.162;24.756;2023-02-03T08:20:31;100267.34;;;6.39;57.41
6387;BME280;3226;42.162;24.756;2023-02-03T08:22:59;100262.66;;;6.13;57.19
6387;BME280;3226;42.162;24.756;2023-02-03T08:25:27;100263.38;;;6.63;55.40
6387;BME280;3226;42.162;24.756;2023-02-03T08:27:55;100268.75;;;6.60;54.52
6387;BME280;3226;42.162;24.756;2023-02-03T08:30:23;100255.22;;;7.00;54.39
6387;BME280;3226;42.162;24.756;2023-02-03T08:32:52;100191.41;;;6.93;52.82
6387;BME280;3226;42.162;24.756;2023-02-03T08:35:20;100249.19;;;7.45;51.88
6387;BME280;3226;42.162;24.756;2023-02-03T08:37:49;100252.94;;;7.10;53.00
6387;BME280;3226;42.162;24.756;2023-02-03T08:40:17;100261.97;;;7.19;52.36
6387;BME280;3226;42.162;24.756;2023-02-03T08:42:45;100269.59;;;7.22;51.10
6387;BME280;3226;42.162;24.756;2023-02-03T08:45:13;100258.47;;;7.49;50.58
6387;BME280;3226;42.162;24.756;2023-02-03T08:47:41;100272.09;;;7.23;50.42
6387;BME280;3226;42.162;24.756;2023-02-03T08:50:10;100270.41;;;6.77;51.89
6387;BME280;3226;42.162;24.756;2023-02-03T08:52:39;100276.41;;;6.94;51.37
6387;BME280;3226;42.162;24.756;2023-02-03T08:55:08;100282.75;;;7.49;50.48
6387;BME280;3226;42.162;24.756;2023-02-03T08:57:37;100193.50;;;6.72;48.67
6387;BME280;3226;42.162;24.756;2023-02-03T09:00:06;100257.00;;;7.00;49.37
6387;BME280;3226;42.162;24.756;2023-02-03T09:02:35;100271.91;;;7.12;50.02
6387;BME280;3226;42.162;24.756;2023-02-03T09:05:03;100283.06;;;7.14;48.70
6387;BME280;3226;42.162;24.756;2023-02-03T09:07:31;100289.38;;;6.79;48.79
6387;BME280;3226;42.162;24.756;2023-02-03T09:09:59;100276.53;;;7.07;48.21
6387;BME280;3226;42.162;24.756;2023-02-03T09:12:28;100281.81;;;7.36;48.47
6387;BME280;3226;42.162;24.756;2023-02-03T09:14:57;100284.84;;;7.73;47.70
6387;BME280;3226;42.162;24.756;2023-02-03T09:17:25;100290.47;;;8.09;46.41
6387;BME280;3226;42.162;24.756;2023-02-03T09:19:53;100291.22;;;8.11;45.93
6387;BME280;3226;42.162;24.756;2023-02-03T09:22:21;100281.28;;;7.60;46.22
6387;BME280;3226;42.162;24.756;2023-02-03T09:24:49;100262.56;;;7.53;45.74
6387;BME280;3226;42.162;24.756;2023-02-03T09:27:17;100281.19;;;7.61;45.62
6387;BME280;3226;42.162;24.756;2023-02-03T09:29:46;100287.72;;;7.83;44.96
6387;BME280;3226;42.162;24.756;2023-02-03T09:32:14;100283.50;;;7.95;45.09
6387;BME280;3226;42.162;24.756;2023-02-03T09:34:42;100270.63;;;8.21;45.23
6387;BME280;3226;42.162;24.756;2023-02-03T09:37:10;100277.94;;;8.01;45.33
6387;BME280;3226;42.162;24.756;2023-02-03T09:39:38;100273.19;;;7.93;45.02
6387;BME280;3226;42.162;24.756;2023-02-03T09:42:28;100258.34;;;8.08;44.66
6387;BME280;3226;42.162;24.756;2023-02-03T09:45:11;100257.44;;;8.09;44.35
6387;BME280;3226;42.162;24.756;2023-02-03T09:47:44;100262.22;;;8.30;44.38
6387;BME280;3226;42.162;24.756;2023-02-03T09:50:20;100252.03;;;7.98;43.52
6387;BME280;3226;42.162;24.756;2023-02-03T09:52:49;100254.63;;;8.40;43.04
6387;BME280;3226;42.162;24.756;2023-02-03T09:55:29;100255.03;;;7.77;43.62
6387;BME280;3226;42.162;24.756;2023-02-03T09:58:04;100258.28;;;7.95;44.01
6387;BME280;3226;42.162;24.756;2023-02-03T10:00:36;100262.03;;;8.33;44.35
6387;BME280;3226;42.162;24.756;2023-02-03T10:03:15;100266.94;;;7.81;43.51
6387;BME280;3226;42.162;24.756;2023-02-03T10:06:00;100264.59;;;7.77;43.42
6387;BME280;3226;42.162;24.756;2023-02-03T10:08:44;100273.47;;;8.03;43.62
6387;BME280;3226;42.162;24.756;2023-02-03T10:11:21;100271.25;;;7.97;43.72
6387;BME280;3226;42.162;24.756;2023-02-03T10:14:03;100269.38;;;7.85;42.84
6387;BME280;3226;42.162;24.756;2023-02-03T10:16:42;100268.00;;;8.21;43.60
6387;BME280;3226;42.162;24.756;2023-02-03T10:19:18;100264.16;;;7.99;43.10
6387;BME280;3226;42.162;24.756;2023-02-03T10:21:50;100266.19;;;7.94;42.63
6387;BME280;3226;42.162;24.756;2023-02-03T10:24:27;100260.78;;;8.12;41.76
6387;BME280;3226;42.162;24.756;2023-02-03T10:26:57;100266.59;;;7.73;42.77
6387;BME280;3226;42.162;24.756;2023-02-03T10:29:29;100263.13;;;7.73;42.89
6387;BME280;3226;42.162;24.756;2023-02-03T10:32:00;100267.41;;;7.59;43.48
6387;BME280;3226;42.162;24.756;2023-02-03T10:34:28;100264.72;;;7.61;43.73
6387;BME280;3226;42.162;24.756;2023-02-03T10:36:57;100240.97;;;7.51;44.04
6387;BME280;3226;42.162;24.756;2023-02-03T10:39:31;100251.47;;;8.07;43.73
6387;BME280;3226;42.162;24.756;2023-02-03T10:42:00;100251.81;;;8.16;43.76
6387;BME280;3226;42.162;24.756;2023-02-03T10:44:35;100250.06;;;8.16;43.08
6387;BME280;3226;42.162;24.756;2023-02-03T10:47:24;100239.25;;;8.08;43.33
6387;BME280;3226;42.162;24.756;2023-02-03T10:49:54;100235.63;;;8.52;42.56
6387;BME280;3226;42.162;24.756;2023-02-03T10:52:26;100234.53;;;8.00;42.09
6387;BME280;3226;42.162;24.756;2023-02-03T10:54:55;100233.78;;;7.98;42.82
6387;BME280;3226;42.162;24.756;2023-02-03T10:57:27;100236.19;;;8.01;43.50
6387;BME280;3226;42.162;24.756;2023-02-03T11:00:05;100213.22;;;8.21;42.90
6387;BME280;3226;42.162;24.756;2023-02-03T11:02:35;100237.50;;;8.50;42.32
6387;BME280;3226;42.162;24.756;2023-02-03T11:05:18;100232.81;;;8.41;42.69
6387;BME280;3226;42.162;24.756;2023-02-03T11:07:47;100233.06;;;8.23;42.52
6387;BME280;3226;42.162;24.756;2023-02-03T11:10:32;100228.19;;;8.04;41.89
6387;BME280;3226;42.162;24.756;2023-02-03T11:13:20;100235.03;;;8.20;43.26
6387;BME280;3226;42.162;24.756;2023-02-03T11:15:52;100225.31;;;8.36;42.72
6387;BME280;3226;42.162;24.756;2023-02-03T11:18:35;100227.50;;;8.43;41.86
6387;BME280;3226;42.162;24.756;2023-02-03T11:21:09;100213.47;;;8.31;42.44
6387;BME280;3226;42.162;24.756;2023-02-03T11:23:44;100231.63;;;8.05;42.35
6387;BME280;3226;42.162;24.756;2023-02-03T11:26:18;100216.97;;;8.17;41.97
6387;BME280;3226;42.162;24.756;2023-02-03T11:28:48;100218.31;;;7.95;43.45
6387;BME280;3226;42.162;24.756;2023-02-03T11:31:20;100225.56;;;8.04;43.37
6387;BME280;3226;42.162;24.756;2023-02-03T11:33:53;100216.16;;;8.16;42.97
6387;BME280;3226;42.162;24.756;2023-02-03T11:36:25;100210.47;;;8.09;42.95
6387;BME280;3226;42.162;24.756;2023-02-03T11:39:16;100207.81;;;8.24;42.43
6387;BME280;3226;42.162;24.756;2023-02-03T11:41:45;100210.94;;;8.02;41.08
6387;BME280;3226;42.162;24.756;2023-02-03T11:44:19;100197.03;;;8.16;41.66
6387;BME280;3226;42.162;24.756;2023-02-03T11:46:51;100202.78;;;8.21;41.38
6387;BME280;3226;42.162;24.756;2023-02-03T11:49:49;100191.75;;;8.03;40.99
6387;BME280;3226;42.162;24.756;2023-02-03T11:52:45;100181.00;;;7.80;41.22
6387;BME280;3226;42.162;24.756;2023-02-03T11:55:40;100192.84;;;7.57;40.68
6387;BME280;3226;42.162;24.756;2023-02-03T11:58:29;100190.75;;;7.91;40.35
6387;BME280;3226;42.162;24.756;2023-02-03T12:01:05;100182.59;;;8.10;40.65
6387;BME280;3226;42.162;24.756;2023-02-03T12:06:49;100169.78;;;8.47;40.61
6387;BME280;3226;42.162;24.756;2023-02-03T12:09:29;100178.03;;;8.68;39.99
6387;BME280;3226;42.162;24.756;2023-02-03T12:12:31;100173.31;;;8.33;38.51
6387;BME280;3226;42.162;24.756;2023-02-03T12:15:23;100176.09;;;8.30;38.93
6387;BME280;3226;42.162;24.756;2023-02-03T12:18:09;100171.94;;;7.86;39.55
6387;BME280;3226;42.162;24.756;2023-02-03T12:20:50;100148.34;;;7.60;41.11
6387;BME280;3226;42.162;24.756;2023-02-03T12:23:36;100158.63;;;7.34;41.34
6387;BME280;3226;42.162;24.756;2023-02-03T12:26:14;100160.56;;;7.16;41.43
6387;BME280;3226;42.162;24.756;2023-02-03T12:28:49;100135.34;;;7.16;41.38
6387;BME280;3226;42.162;24.756;2023-02-03T12:31:26;100152.00;;;7.28;41.38
6387;BME280;3226;42.162;24.756;2023-02-03T12:34:02;100141.66;;;7.41;42.22
6387;BME280;3226;42.162;24.756;2023-02-03T12:36:36;100148.91;;;7.50;41.72
6387;BME280;3226;42.162;24.756;2023-02-03T12:39:13;100153.00;;;7.55;42.09
6387;BME280;3226;42.162;24.756;2023-02-03T12:41:47;100139.50;;;7.62;41.43
6387;BME280;3226;42.162;24.756;2023-02-03T12:44:20;100147.31;;;7.62;41.09
6387;BME280;3226;42.162;24.756;2023-02-03T12:46:55;100144.31;;;7.83;40.89
6387;BME280;3226;42.162;24.756;2023-02-03T12:49:35;100140.47;;;7.89;41.03
6387;BME280;3226;42.162;24.756;2023-02-03T12:52:13;100147.75;;;7.84;41.04
6387;BME280;3226;42.162;24.756;2023-02-03T12:54:51;100126.19;;;7.52;40.72
6387;BME280;3226;42.162;24.756;2023-02-03T12:57:25;100133.88;;;7.83;40.98
6387;BME280;3226;42.162;24.756;2023-02-03T13:00:14;100118.13;;;7.85;40.59
6387;BME280;3226;42.162;24.756;2023-02-03T13:02:56;100131.69;;;7.90;39.77
6387;BME280;3226;42.162;24.756;2023-02-03T13:05:33;100127.34;;;7.90;39.75
6387;BME280;3226;42.162;24.756;2023-02-03T13:08:12;100118.44;;;8.07;40.34
6387;BME280;3226;42.162;24.756;2023-02-03T13:10:47;100105.63;;;7.90;40.00
6387;BME280;3226;42.162;24.756;2023-02-03T13:13:33;100122.00;;;7.92;39.99
6387;BME280;3226;42.162;24.756;2023-02-03T13:16:06;100118.91;;;7.58;40.80
6387;BME280;3226;42.162;24.756;2023-02-03T13:18:38;100122.66;;;7.68;40.98
6387;BME280;3226;42.162;24.756;2023-02-03T13:21:09;100117.31;;;7.84;40.82
6387;BME280;3226;42.162;24.756;2023-02-03T13:23:40;100114.91;;;7.94;41.37
6387;BME280;3226;42.162;24.756;2023-02-03T13:29:38;100122.09;;;7.63;41.16
6387;BME280;3226;42.162;24.756;2023-02-03T13:32:23;100120.53;;;7.88;41.10
6387;BME280;3226;42.162;24.756;2023-02-03T13:35:10;100114.75;;;7.97;41.14
6387;BME280;3226;42.162;24.756;2023-02-03T13:38:06;100111.81;;;8.02;41.13
6387;BME280;3226;42.162;24.756;2023-02-03T13:40:46;100102.69;;;8.22;39.26
6387;BME280;3226;42.162;24.756;2023-02-03T13:43:24;100089.19;;;8.02;37.76
6387;BME280;3226;42.162;24.756;2023-02-03T13:46:05;100097.56;;;8.07;37.83
6387;BME280;3226;42.162;24.756;2023-02-03T13:48:43;100108.78;;;8.22;37.33
6387;BME280;3226;42.162;24.756;2023-02-03T13:51:14;100094.94;;;8.07;37.59